Time;durP1;ratioP1;P1;durP2;ratioP2;P2;SDS_P1;SDS_P2;PMS_P1;PMS_P2;Temp;Humidity;BMP_temperature;BMP_pressure;BME280_temperature;BME280_humidity;BME280_pressure;Samples;Min_cycle;Max_cycle;Signal;HPM_P1;HPM_P2
2022/06/11 00:02:24;;;;;;;13.50;13.03;;;23.20;99.90;;;;;;5071275;28;20463;-66
2022/06/11 00:04:51;;;;;;;13.40;12.90;;;23.20;99.90;;;;;;5071307;28;20958;-66
2022/06/11 00:07:21;;;;;;;12.90;12.40;;;23.20;99.90;;;;;;5071251;28;20447;-67
2022/06/11 00:09:50;;;;;;;14.17;13.43;;;23.20;99.90;;;;;;5070975;28;20463;-66
2022/06/11 00:12:17;;;;;;;13.40;12.80;;;23.20;99.90;;;;;;5071002;28;20533;-66
2022/06/11 00:14:47;;;;;;;13.33;12.83;;;23.20;99.90;;;;;;5071170;28;20527;-66
2022/06/11 00:17:16;;;;;;;12.27;11.87;;;23.20;99.90;;;;;;5071000;28;20857;-66
2022/06/11 00:19:44;;;;;;;12.37;11.97;;;23.30;99.90;;;;;;5070991;28;20566;-66
2022/06/11 00:22:13;;;;;;;13.33;12.93;;;23.30;99.90;;;;;;5071147;28;20482;-66
2022/06/11 00:24:40;;;;;;;13.40;12.60;;;23.30;99.90;;;;;;5071224;28;20508;-66
2022/06/11 00:27:09;;;;;;;12.67;12.27;;;23.30;99.90;;;;;;5071035;28;20530;-66
2022/06/11 00:29:38;;;;;;;12.70;12.30;;;23.30;99.90;;;;;;5070893;28;20467;-68
2022/06/11 00:32:06;;;;;;;13.23;12.57;;;23.30;99.90;;;;;;5071107;28;21017;-68
2022/06/11 00:34:34;;;;;;;12.90;12.50;;;23.20;99.90;;;;;;5070984;28;20534;-69
2022/06/11 00:37:01;;;;;;;13.13;12.53;;;23.20;99.90;;;;;;5070892;28;20829;-69
2022/06/11 00:39:31;;;;;;;12.87;12.47;;;23.20;99.90;;;;;;5070830;28;20489;-68
2022/06/11 00:42:05;;;;;;;13.10;12.53;;;23.10;99.90;;;;;;5071034;28;20467;-68
2022/06/11 00:44:33;;;;;;;12.87;12.47;;;23.10;99.90;;;;;;5071016;28;20930;-68
2022/06/11 00:47:04;;;;;;;14.30;13.30;;;23.10;99.90;;;;;;5070756;28;20489;-68
2022/06/11 00:49:38;;;;;;;14.57;13.87;;;23.10;99.90;;;;;;5070725;28;20878;-68
2022/06/11 00:52:21;;;;;;;13.07;12.50;;;23.10;99.90;;;;;;5071192;28;20492;-68
2022/06/11 00:55:05;;;;;;;13.47;12.87;;;23.10;99.90;;;;;;5070847;28;20972;-69
2022/06/11 00:57:37;;;;;;;13.90;13.40;;;23.10;99.90;;;;;;5070721;28;20817;-69
2022/06/11 01:00:12;;;;;;;12.83;12.40;;;23.00;99.90;;;;;;5070582;28;20912;-69
2022/06/11 01:02:39;;;;;;;12.80;12.40;;;23.00;99.90;;;;;;5073816;28;20446;-69
2022/06/11 01:05:07;;;;;;;14.07;13.57;;;23.00;99.90;;;;;;5074500;28;20490;-69
2022/06/11 01:07:52;;;;;;;13.07;12.67;;;23.00;99.90;;;;;;5074182;28;20448;-69
2022/06/11 01:10:49;;;;;;;13.50;13.00;;;23.00;99.90;;;;;;5073863;28;20530;-69
2022/06/11 01:13:32;;;;;;;12.67;12.27;;;23.00;99.90;;;;;;5074230;28;20534;-69
2022/06/11 01:16:04;;;;;;;13.53;13.10;;;22.90;99.90;;;;;;5073988;28;20997;-69
2022/06/11 01:18:46;;;;;;;14.30;13.70;;;23.00;99.90;;;;;;5073879;28;20575;-69
2022/06/11 01:21:30;;;;;;;13.80;13.40;;;22.90;99.90;;;;;;5073897;28;20537;-69
2022/06/11 01:24:38;;;;;;;12.53;12.23;;;22.90;99.90;;;;;;5074153;28;20526;-68
2022/06/11 01:27:41;;;;;;;13.87;13.47;;;22.90;99.90;;;;;;5026347;28;20456;-69
2022/06/11 01:30:11;;;;;;;13.60;12.97;;;22.90;99.90;;;;;;5073779;28;20853;-68
2022/06/11 01:32:48;;;;;;;14.20;13.70;;;22.90;99.90;;;;;;5074146;28;20879;-68
2022/06/11 01:35:46;;;;;;;12.83;12.43;;;23.00;99.90;;;;;;5074125;28;20478;-69
2022/06/11 01:38:23;;;;;;;13.93;13.50;;;22.90;99.90;;;;;;5052769;28;20503;-69
2022/06/11 01:40:55;;;;;;;14.20;13.80;;;22.90;99.90;;;;;;5053527;28;20522;-69
2022/06/11 01:43:26;;;;;;;13.37;12.77;;;22.90;99.90;;;;;;5053904;28;20450;-69
2022/06/11 01:45:54;;;;;;;12.60;12.30;;;22.90;99.90;;;;;;5058430;28;20481;-68
2022/06/11 01:48:25;;;;;;;13.33;12.93;;;22.90;99.90;;;;;;5073564;28;20600;-68
2022/06/11 01:51:00;;;;;;;13.40;12.90;;;22.90;99.90;;;;;;5073401;28;20443;-68
2022/06/11 01:53:52;;;;;;;12.57;12.17;;;22.90;99.90;;;;;;5073508;28;20446;-68
2022/06/11 01:56:41;;;;;;;13.03;12.53;;;22.90;99.90;;;;;;5044541;28;20995;-69
2022/06/11 01:59:26;;;;;;;14.40;13.90;;;22.90;99.90;;;;;;5053376;28;20512;-69
2022/06/11 02:02:05;;;;;;;15.00;14.40;;;22.90;99.90;;;;;;5072501;28;20482;-69
2022/06/11 02:04:41;;;;;;;13.70;13.30;;;22.80;99.90;;;;;;5073161;28;20475;-69
2022/06/11 02:07:15;;;;;;;13.83;13.33;;;22.80;99.90;;;;;;5073413;28;20529;-69
2022/06/11 02:09:59;;;;;;;13.90;13.40;;;22.80;99.90;;;;;;5073000;28;20465;-68
2022/06/11 02:12:32;;;;;;;13.73;13.30;;;22.90;99.90;;;;;;5072063;28;20531;-69
2022/06/11 02:15:05;;;;;;;13.90;13.30;;;22.80;99.90;;;;;;5073159;28;20482;-69
2022/06/11 02:17:38;;;;;;;13.10;12.80;;;22.80;99.90;;;;;;5073040;28;20522;-69
2022/06/11 02:20:10;;;;;;;13.40;13.00;;;22.80;99.90;;;;;;5072616;28;20595;-69
2022/06/11 02:22:45;;;;;;;13.40;12.70;;;22.80;99.90;;;;;;5072725;28;20546;-69
2022/06/11 02:25:17;;;;;;;13.47;13.07;;;22.80;99.90;;;;;;5072905;28;20478;-69
2022/06/11 02:27:45;;;;;;;13.77;13.27;;;22.80;99.90;;;;;;5072856;28;20531;-68
2022/06/11 02:30:17;;;;;;;13.70;13.30;;;22.80;99.90;;;;;;5072531;28;20874;-68
2022/06/11 02:32:46;;;;;;;12.67;12.37;;;22.80;99.90;;;;;;5072457;28;20980;-68
2022/06/11 02:35:24;;;;;;;14.10;13.60;;;22.70;99.90;;;;;;5072729;28;20458;-68
2022/06/11 02:37:50;;;;;;;12.73;12.23;;;22.70;99.90;;;;;;5072492;28;20467;-68
2022/06/11 02:40:22;;;;;;;12.20;11.80;;;22.70;99.90;;;;;;5072264;28;20515;-68
2022/06/11 02:42:50;;;;;;;13.40;13.00;;;22.70;99.90;;;;;;5072226;28;20490;-68
2022/06/11 02:45:18;;;;;;;12.90;12.20;;;22.70;99.90;;;;;;5072393;28;20444;-68
2022/06/11 02:47:49;;;;;;;13.30;12.80;;;22.70;99.90;;;;;;5072259;28;20997;-68
2022/06/11 02:50:20;;;;;;;14.03;13.20;;;22.60;99.90;;;;;;5072240;28;20478;-68
2022/06/11 02:52:47;;;;;;;13.67;13.17;;;22.60;99.90;;;;;;5072025;28;21021;-68
2022/06/11 02:55:14;;;;;;;12.83;12.33;;;22.70;99.90;;;;;;5072262;28;20523;-69
2022/06/11 02:57:42;;;;;;;14.40;13.70;;;22.70;99.90;;;;;;5072311;28;20439;-69
2022/06/11 03:00:14;;;;;;;12.93;12.50;;;22.60;99.90;;;;;;5072001;28;20482;-69
2022/06/11 03:02:41;;;;;;;12.83;12.43;;;22.60;99.90;;;;;;5072016;28;20475;-68
2022/06/11 03:05:10;;;;;;;12.53;11.93;;;22.60;99.90;;;;;;5072135;28;21005;-69
2022/06/11 03:07:37;;;;;;;12.63;12.23;;;22.60;99.90;;;;;;5072048;28;20451;-69
2022/06/11 03:10:05;;;;;;;11.90;11.50;;;22.60;99.90;;;;;;5071788;28;20877;-69
2022/06/11 03:12:32;;;;;;;13.03;12.63;;;22.60;99.90;;;;;;5071802;28;20889;-68
2022/06/11 03:14:59;;;;;;;12.47;11.80;;;22.60;99.90;;;;;;5071924;28;20443;-69
2022/06/11 03:17:28;;;;;;;13.63;13.10;;;22.60;99.90;;;;;;5071973;28;20938;-69
2022/06/11 03:19:55;;;;;;;13.50;12.80;;;22.60;99.90;;;;;;5072096;28;20491;-68
2022/06/11 03:22:24;;;;;;;12.53;12.13;;;22.60;99.90;;;;;;5071535;28;21022;-68
2022/06/11 03:24:50;;;;;;;12.53;12.13;;;22.60;99.90;;;;;;5071638;28;20527;-68
2022/06/11 03:27:17;;;;;;;13.03;12.53;;;22.60;99.90;;;;;;5071786;28;20881;-68
2022/06/11 03:29:44;;;;;;;13.03;12.63;;;22.60;99.90;;;;;;5071280;28;20503;-68
2022/06/11 03:32:11;;;;;;;13.20;12.80;;;22.60;99.90;;;;;;5071661;28;20500;-68
2022/06/11 03:34:39;;;;;;;13.70;13.30;;;22.60;99.90;;;;;;5071806;28;20487;-68
2022/06/11 03:37:06;;;;;;;14.30;13.70;;;22.60;99.90;;;;;;5071685;28;20865;-68
2022/06/11 03:39:35;;;;;;;14.37;13.87;;;22.60;99.90;;;;;;5071128;28;20528;-67
2022/06/11 03:42:02;;;;;;;13.50;13.10;;;22.50;99.90;;;;;;5071575;28;21038;-68
2022/06/11 03:44:29;;;;;;;13.10;12.67;;;22.60;99.90;;;;;;5071689;28;20543;-68
2022/06/11 03:46:56;;;;;;;12.60;12.30;;;22.50;99.90;;;;;;5071684;28;20448;-67
2022/06/11 03:49:23;;;;;;;14.43;13.97;;;22.50;99.90;;;;;;5071246;28;20455;-67
2022/06/11 03:51:50;;;;;;;13.50;13.10;;;22.50;99.90;;;;;;5071155;28;20523;-67
2022/06/11 03:54:18;;;;;;;13.40;13.00;;;22.50;99.90;;;;;;5071506;28;20446;-67
2022/06/11 03:56:49;;;;;;;13.50;13.10;;;22.60;99.90;;;;;;5071327;28;20483;-68
2022/06/11 03:59:17;;;;;;;14.37;13.87;;;22.50;99.90;;;;;;5071044;28;20519;-68
2022/06/11 04:01:45;;;;;;;16.07;15.37;;;22.50;99.90;;;;;;5071214;28;20478;-68
2022/06/11 04:04:15;;;;;;;14.80;14.40;;;22.50;99.90;;;;;;5071407;28;20534;-68
2022/06/11 04:06:44;;;;;;;15.63;15.13;;;22.50;99.90;;;;;;5071136;28;20483;-68
2022/06/11 04:09:15;;;;;;;15.10;14.63;;;22.50;99.90;;;;;;5071233;28;20495;-68
2022/06/11 04:11:42;;;;;;;15.40;14.90;;;22.50;99.90;;;;;;5071194;28;20483;-68
2022/06/11 04:14:10;;;;;;;15.33;14.83;;;22.50;99.90;;;;;;5071421;28;20479;-69
2022/06/11 04:16:43;;;;;;;15.27;14.67;;;22.50;99.90;;;;;;5071246;28;20447;-69
2022/06/11 04:19:15;;;;;;;15.13;14.63;;;22.60;99.90;;;;;;5071149;28;20573;-70
2022/06/11 04:21:42;;;;;;;14.83;14.37;;;22.60;99.90;;;;;;5071220;28;20536;-70
2022/06/11 04:24:09;;;;;;;15.50;15.00;;;22.60;99.90;;;;;;5071283;28;20450;-69
2022/06/11 04:26:40;;;;;;;14.60;14.20;;;22.60;99.90;;;;;;5070983;28;20458;-69
2022/06/11 04:29:09;;;;;;;15.60;15.10;;;22.70;99.90;;;;;;5070983;28;20463;-70
2022/06/11 04:31:38;;;;;;;15.53;15.03;;;22.70;99.90;;;;;;5070930;28;20534;-70
2022/06/11 04:34:06;;;;;;;15.80;15.30;;;22.70;99.90;;;;;;5071206;28;20485;-69
2022/06/11 04:36:36;;;;;;;15.00;14.60;;;22.70;99.90;;;;;;5072277;28;20485;-69
2022/06/11 04:39:04;;;;;;;14.53;14.03;;;22.70;99.90;;;;;;5074760;28;20542;-69
2022/06/11 04:41:31;;;;;;;16.07;15.37;;;22.70;99.90;;;;;;5074682;28;20451;-68
2022/06/11 04:43:58;;;;;;;15.93;15.43;;;22.70;99.90;;;;;;5074812;28;20858;-67
2022/06/11 04:46:25;;;;;;;16.27;15.77;;;22.70;99.90;;;;;;5074466;28;20890;-67
2022/06/11 04:48:54;;;;;;;15.93;15.50;;;22.70;99.90;;;;;;5074575;28;20491;-66
2022/06/11 04:51:21;;;;;;;17.07;16.27;;;22.80;99.90;;;;;;5074323;28;20496;-67
2022/06/11 04:53:48;;;;;;;16.30;15.80;;;22.80;99.90;;;;;;5074548;28;20498;-68
2022/06/11 04:56:17;;;;;;;16.27;15.77;;;22.70;99.90;;;;;;5074359;28;20501;-67
2022/06/11 04:58:45;;;;;;;16.53;15.90;;;22.80;99.90;;;;;;5074467;28;20871;-66
2022/06/11 05:01:12;;;;;;;16.43;15.93;;;22.80;99.90;;;;;;5074146;28;20483;-66
2022/06/11 05:03:40;;;;;;;15.70;15.10;;;22.80;99.90;;;;;;5074479;28;20534;-67
2022/06/11 05:06:09;;;;;;;15.67;15.17;;;22.80;99.90;;;;;;5074095;28;20526;-67
2022/06/11 05:08:35;;;;;;;15.50;14.80;;;22.80;99.90;;;;;;5074232;28;20542;-67
2022/06/11 05:11:04;;;;;;;16.73;16.23;;;22.80;99.90;;;;;;5074140;28;20445;-67
2022/06/11 05:13:31;;;;;;;16.33;15.93;;;22.80;99.90;;;;;;5074258;28;20447;-68
2022/06/11 05:15:58;;;;;;;15.50;14.90;;;22.80;99.90;;;;;;5073991;28;20534;-68
2022/06/11 05:18:27;;;;;;;16.00;15.50;;;22.80;99.90;;;;;;5075280;28;20569;-66
2022/06/11 05:20:54;;;;;;;8.75;8.45;;;22.80;99.90;;;;;;5079249;28;20453;-68
2022/06/11 05:23:23;;;;;;;9.50;9.00;;;22.90;99.90;;;;;;5074310;28;20469;-68
2022/06/11 05:25:51;;;;;;;12.37;11.87;;;22.90;99.90;;;;;;5075424;28;20205;-69
2022/06/11 05:28:20;;;;;;;10.63;10.33;;;22.90;99.90;;;;;;5075728;28;20558;-72
2022/06/11 05:30:48;;;;;;;10.50;10.20;;;22.90;99.90;;;;;;5075404;28;20843;-72
2022/06/11 05:33:16;;;;;;;10.77;10.37;;;22.90;99.90;;;;;;5075300;28;20449;-69
2022/06/11 05:35:43;;;;;;;9.27;8.98;;;22.90;99.90;;;;;;5074177;28;20438;-68
2022/06/11 05:38:14;;;;;;;12.10;11.60;;;22.90;99.90;;;;;;5075090;28;20224;-67
2022/06/11 05:40:44;;;;;;;9.02;8.73;;;23.00;99.90;;;;;;5075145;28;20547;-68
2022/06/11 05:43:12;;;;;;;10.90;10.60;;;23.00;99.90;;;;;;5075062;28;20289;-69
2022/06/11 05:45:46;;;;;;;11.20;10.80;;;23.00;99.90;;;;;;5073677;28;20475;-69
2022/06/11 05:48:21;;;;;;;11.47;11.07;;;23.00;99.90;;;;;;5073459;28;20494;-66
2022/06/11 05:50:52;;;;;;;11.13;10.60;;;23.00;99.90;;;;;;5074050;28;20469;-66
2022/06/11 05:53:22;;;;;;;11.60;11.20;;;22.90;99.90;;;;;;5074257;28;20860;-66
2022/06/11 05:55:51;;;;;;;11.50;11.00;;;22.90;99.90;;;;;;5073423;28;20462;-66
2022/06/11 05:58:24;;;;;;;11.30;10.80;;;22.90;99.90;;;;;;5073495;28;20528;-66
2022/06/11 06:00:52;;;;;;;12.00;11.50;;;22.90;99.90;;;;;;5073089;28;20566;-66
2022/06/11 06:03:18;;;;;;;11.40;10.90;;;22.90;99.90;;;;;;5073241;28;20534;-66
2022/06/11 06:05:45;;;;;;;12.50;11.90;;;22.90;99.90;;;;;;5073341;28;20527;-66
2022/06/11 06:08:13;;;;;;;13.27;12.37;;;22.90;99.90;;;;;;5073247;28;20550;-66
2022/06/11 06:10:40;;;;;;;13.33;12.23;;;23.00;99.90;;;;;;5073071;28;20443;-66
2022/06/11 06:15:52;;;;;;;13.83;12.83;;;23.00;99.90;;;;;;5053585;28;20436;-69
2022/06/11 06:18:19;;;;;;;13.77;12.97;;;23.10;99.90;;;;;;5053513;28;20476;-69
2022/06/11 06:20:46;;;;;;;17.73;16.20;;;23.10;99.90;;;;;;5054170;28;20570;-71
2022/06/11 06:23:13;;;;;;;10.67;9.80;;;23.10;99.90;;;;;;5074152;28;20508;-70
2022/06/11 06:25:40;;;;;;;8.87;8.20;;;23.10;99.90;;;;;;5075775;28;20498;-71
2022/06/11 06:28:09;;;;;;;10.37;9.20;;;23.10;99.90;;;;;;5073651;28;20556;-67
2022/06/11 06:30:36;;;;;;;8.83;8.33;;;23.10;99.90;;;;;;5072738;28;20945;-70
2022/06/11 06:33:03;;;;;;;9.10;8.40;;;23.10;99.90;;;;;;5073158;28;20538;-69
2022/06/11 06:35:29;;;;;;;8.43;8.03;;;23.10;99.90;;;;;;5073132;28;20471;-67
2022/06/11 06:37:56;;;;;;;9.60;8.90;;;23.10;99.90;;;;;;5074696;28;20516;-72
2022/06/11 06:40:24;;;;;;;9.60;8.77;;;23.10;99.90;;;;;;5076174;28;20517;-67
2022/06/11 06:42:50;;;;;;;9.10;8.70;;;23.10;99.90;;;;;;5074274;28;20497;-69
2022/06/11 06:45:20;;;;;;;10.13;9.53;;;23.10;99.90;;;;;;5073072;28;20450;-69
2022/06/11 06:47:47;;;;;;;9.87;9.30;;;23.10;99.90;;;;;;5074175;28;20457;-69
2022/06/11 06:50:15;;;;;;;12.30;10.17;;;23.10;99.90;;;;;;5074387;28;21006;-69
2022/06/11 06:52:42;;;;;;;9.63;9.03;;;23.00;99.90;;;;;;5072546;28;20877;-69
2022/06/11 06:55:11;;;;;;;9.73;9.13;;;23.00;99.90;;;;;;5072015;28;20538;-69
2022/06/11 06:57:38;;;;;;;9.53;8.93;;;23.00;99.90;;;;;;5072899;28;20852;-70
2022/06/11 07:00:07;;;;;;;10.30;9.70;;;23.10;99.90;;;;;;5071991;28;20486;-70
2022/06/11 07:02:36;;;;;;;10.30;9.70;;;23.10;99.90;;;;;;5072514;28;20445;-69
2022/06/11 07:05:03;;;;;;;9.80;9.30;;;23.00;99.90;;;;;;5073012;28;20534;-70
2022/06/11 07:07:30;;;;;;;8.80;8.50;;;23.00;99.90;;;;;;5073054;28;20454;-69
2022/06/11 07:09:58;;;;;;;9.67;8.90;;;23.00;99.90;;;;;;5072391;28;20463;-70
2022/06/11 07:12:25;;;;;;;9.73;9.33;;;23.00;99.90;;;;;;5072318;28;20449;-70
2022/06/11 07:14:52;;;;;;;9.03;8.53;;;23.00;99.90;;;;;;5072393;28;20444;-69
2022/06/11 07:17:19;;;;;;;9.00;8.60;;;23.00;99.90;;;;;;5072178;28;20486;-70
2022/06/11 07:19:52;;;;;;;10.30;9.87;;;23.00;99.90;;;;;;5071709;28;20482;-69
2022/06/11 07:22:22;;;;;;;9.83;9.37;;;23.00;99.90;;;;;;5072050;28;20710;-69
2022/06/11 07:24:49;;;;;;;10.27;9.77;;;23.10;99.90;;;;;;5071668;28;20476;-68
2022/06/11 07:27:20;;;;;;;8.47;8.23;;;23.00;99.90;;;;;;5071886;28;20443;-69
2022/06/11 07:29:52;;;;;;;9.80;9.40;;;23.00;99.90;;;;;;5072493;28;20562;-68
2022/06/11 07:32:22;;;;;;;10.50;9.90;;;23.10;99.90;;;;;;5073068;28;20533;-68
2022/06/11 07:34:50;;;;;;;8.07;7.67;;;23.10;99.90;;;;;;5073137;28;20512;-67
2022/06/11 07:37:18;;;;;;;9.90;9.40;;;23.10;99.90;;;;;;5072711;28;20449;-68
2022/06/11 07:39:45;;;;;;;8.50;8.30;;;23.10;99.90;;;;;;5071857;28;20887;-66
2022/06/11 07:42:12;;;;;;;9.20;8.63;;;23.10;99.90;;;;;;5071490;28;20921;-67
2022/06/11 07:44:39;;;;;;;8.87;8.47;;;23.10;99.90;;;;;;5072442;28;20479;-68
2022/06/11 07:47:07;;;;;;;8.40;8.00;;;23.10;99.90;;;;;;5071941;28;20455;-67
2022/06/11 07:49:34;;;;;;;8.67;8.37;;;23.10;99.90;;;;;;5072213;28;20553;-67
2022/06/11 07:52:02;;;;;;;9.00;8.70;;;23.10;99.90;;;;;;5071601;28;20475;-69
2022/06/11 07:54:29;;;;;;;8.67;8.37;;;23.10;99.90;;;;;;5071447;28;20486;-68
2022/06/11 07:56:56;;;;;;;8.60;8.30;;;23.10;99.90;;;;;;5071449;28;20470;-67
2022/06/11 07:59:23;;;;;;;7.63;7.43;;;23.10;99.90;;;;;;5071276;28;20505;-67
2022/06/11 08:01:50;;;;;;;8.57;8.03;;;23.10;99.90;;;;;;5071082;28;20861;-69
2022/06/11 08:04:17;;;;;;;7.87;7.67;;;23.10;99.90;;;;;;5071657;28;20505;-71
2022/06/11 08:06:44;;;;;;;8.90;8.60;;;23.10;99.90;;;;;;5071546;28;20531;-70
2022/06/11 08:09:12;;;;;;;8.03;7.83;;;23.10;99.90;;;;;;5070979;28;20510;-69
2022/06/11 08:11:40;;;;;;;7.70;7.50;;;23.20;99.90;;;;;;5072397;28;20522;-69
2022/06/11 08:14:09;;;;;;;8.07;7.87;;;23.20;99.90;;;;;;5075329;28;20523;-70
2022/06/11 08:16:36;;;;;;;9.27;8.90;;;23.10;99.90;;;;;;5075019;28;20443;-69
2022/06/11 08:19:03;;;;;;;8.83;8.53;;;23.10;99.90;;;;;;5074950;28;20510;-68
2022/06/11 08:21:29;;;;;;;8.07;7.87;;;23.10;99.90;;;;;;5074870;28;20569;-68
2022/06/11 08:23:56;;;;;;;8.50;8.30;;;23.10;99.90;;;;;;5075160;28;20449;-68
2022/06/11 08:26:25;;;;;;;9.47;9.17;;;23.10;99.90;;;;;;5075076;28;20445;-68
2022/06/11 08:28:51;;;;;;;8.20;8.00;;;23.10;99.90;;;;;;5074887;28;20459;-68
2022/06/11 08:31:18;;;;;;;8.53;8.23;;;23.10;99.90;;;;;;5074933;28;20467;-68
2022/06/11 08:33:45;;;;;;;8.73;8.40;;;23.10;99.90;;;;;;5075055;28;20866;-68
2022/06/11 08:36:12;;;;;;;9.17;8.87;;;23.10;99.90;;;;;;5074957;28;20440;-68
2022/06/11 08:38:39;;;;;;;8.30;8.00;;;23.10;99.90;;;;;;5074934;28;20491;-68
2022/06/11 08:41:14;;;;;;;8.60;8.30;;;23.10;99.90;;;;;;5074571;28;20516;-68
2022/06/11 08:43:51;;;;;;;8.37;8.07;;;23.10;99.90;;;;;;5074987;28;20857;-68
2022/06/11 08:46:19;;;;;;;9.83;9.53;;;23.20;99.90;;;;;;5074877;28;20489;-68
2022/06/11 08:48:52;;;;;;;8.70;8.40;;;23.20;99.90;;;;;;5074654;28;21034;-68
2022/06/11 08:51:27;;;;;;;9.10;8.63;;;23.10;99.90;;;;;;5074441;28;20946;-68
2022/06/11 08:53:58;;;;;;;8.47;8.27;;;23.10;99.90;;;;;;5074618;28;20470;-68
2022/06/11 08:56:33;;;;;;;9.27;8.87;;;23.10;99.90;;;;;;5074690;28;20449;-68
2022/06/11 08:59:14;;;;;;;9.00;8.80;;;23.10;99.90;;;;;;5074543;28;20528;-69
2022/06/11 09:01:50;;;;;;;8.50;8.30;;;23.10;99.90;;;;;;5074242;28;21056;-68
2022/06/11 09:04:35;;;;;;;8.63;8.23;;;23.20;99.90;;;;;;5074442;28;20478;-68
2022/06/11 09:07:31;;;;;;;8.23;8.00;;;23.10;99.90;;;;;;5074356;28;20487;-68
2022/06/11 09:10:17;;;;;;;7.80;7.60;;;23.10;99.90;;;;;;5074060;28;20466;-68
2022/06/11 09:13:03;;;;;;;8.77;8.47;;;23.10;99.90;;;;;;5074425;28;20523;-68
2022/06/11 09:15:48;;;;;;;7.80;7.60;;;23.10;99.90;;;;;;5074254;28;20543;-68
2022/06/11 09:19:02;;;;;;;7.87;7.67;;;23.10;99.90;;;;;;5074627;28;20517;-69
2022/06/11 09:21:43;;;;;;;8.40;8.10;;;23.10;99.90;;;;;;5073447;28;20518;-68
2022/06/11 09:24:31;;;;;;;8.20;8.00;;;23.10;99.90;;;;;;5074130;28;20439;-68
2022/06/11 09:27:01;;;;;;;7.90;7.70;;;23.10;99.90;;;;;;5074134;28;20871;-68
2022/06/11 09:29:34;;;;;;;8.47;8.20;;;23.10;99.90;;;;;;5073744;28;20553;-68
2022/06/11 09:32:13;;;;;;;8.33;8.03;;;23.20;99.90;;;;;;5073909;28;20440;-68
2022/06/11 09:34:47;;;;;;;8.30;8.10;;;23.20;99.90;;;;;;5073838;28;20482;-68
2022/06/11 09:37:17;;;;;;;9.37;9.07;;;23.20;99.90;;;;;;5073719;28;20443;-68
2022/06/11 09:39:53;;;;;;;8.63;8.43;;;23.20;99.90;;;;;;5073548;28;20502;-68
2022/06/11 09:42:47;;;;;;;10.13;9.70;;;23.20;99.90;;;;;;5073669;28;20478;-68
2022/06/11 09:45:20;;;;;;;8.43;8.23;;;23.20;99.90;;;;;;5073801;28;20518;-68
2022/06/11 09:48:02;;;;;;;8.57;8.37;;;23.20;99.90;;;;;;5073535;28;20443;-68
2022/06/11 09:50:35;;;;;;;8.80;8.33;;;23.20;99.90;;;;;;5073397;28;20435;-69
2022/06/11 09:53:15;;;;;;;7.93;7.50;;;23.20;99.90;;;;;;5073663;28;20439;-68
2022/06/11 09:55:50;;;;;;;8.40;8.20;;;23.20;99.90;;;;;;5073502;28;20477;-68
2022/06/11 09:58:25;;;;;;;8.83;8.53;;;23.20;99.90;;;;;;5073457;28;20463;-67
2022/06/11 10:00:57;;;;;;;8.80;8.60;;;23.20;99.90;;;;;;5073224;28;20508;-68
2022/06/11 10:03:35;;;;;;;8.50;8.20;;;23.20;99.90;;;;;;5073064;28;20557;-69
2022/06/11 10:06:06;;;;;;;8.90;8.67;;;23.20;99.90;;;;;;5073209;28;20455;-68
2022/06/11 10:08:39;;;;;;;8.60;8.30;;;23.20;99.90;;;;;;5073042;28;20966;-69
2022/06/11 10:11:15;;;;;;;8.20;8.00;;;23.20;99.90;;;;;;5073123;28;20467;-68
2022/06/11 10:13:50;;;;;;;8.90;8.60;;;23.30;99.90;;;;;;5073302;28;20525;-68
2022/06/11 10:16:27;;;;;;;8.50;8.30;;;23.20;99.90;;;;;;5073248;28;20439;-69
2022/06/11 10:18:58;;;;;;;9.90;9.60;;;23.30;99.90;;;;;;5073001;28;20475;-68
2022/06/11 10:21:26;;;;;;;8.40;8.20;;;23.20;99.90;;;;;;5072838;28;20521;-68
2022/06/11 10:23:58;;;;;;;8.87;8.57;;;23.30;99.90;;;;;;5072976;28;20444;-68
2022/06/11 10:26:29;;;;;;;9.30;8.80;;;23.30;99.90;;;;;;5073074;28;20447;-68
2022/06/11 10:29:05;;;;;;;8.83;8.63;;;23.30;99.90;;;;;;5072868;28;20880;-68
2022/06/11 10:31:38;;;;;;;8.47;8.17;;;23.30;99.90;;;;;;5072738;28;20471;-68
2022/06/11 10:34:12;;;;;;;9.03;8.73;;;23.30;99.90;;;;;;5071865;28;20526;-68
2022/06/11 10:36:43;;;;;;;9.43;9.17;;;23.30;99.90;;;;;;5072637;28;20530;-68
2022/06/11 10:39:16;;;;;;;8.40;8.10;;;23.30;99.90;;;;;;5072671;28;21055;-67
2022/06/11 10:41:52;;;;;;;9.10;8.80;;;23.30;99.90;;;;;;5072290;28;20517;-68
2022/06/11 10:44:35;;;;;;;9.30;8.90;;;23.30;99.90;;;;;;5072599;28;20442;-69
2022/06/11 10:47:02;;;;;;;9.27;8.97;;;23.30;99.90;;;;;;5072580;28;20519;-68
2022/06/11 10:49:30;;;;;;;9.40;9.10;;;23.30;99.90;;;;;;5072098;28;20550;-68
2022/06/11 10:52:02;;;;;;;9.93;9.63;;;23.30;99.90;;;;;;5072444;28;20439;-69
2022/06/11 10:54:29;;;;;;;9.47;9.17;;;23.30;99.90;;;;;;5072418;28;20897;-68
2022/06/11 10:56:59;;;;;;;9.77;9.27;;;23.30;99.90;;;;;;5072272;28;20530;-68
2022/06/11 10:59:33;;;;;;;9.07;8.77;;;23.30;99.90;;;;;;5072113;28;20463;-68
2022/06/11 11:02:12;;;;;;;9.30;9.00;;;23.30;99.90;;;;;;5072161;28;20571;-67
2022/06/11 11:04:43;;;;;;;10.50;10.20;;;23.30;99.90;;;;;;5072168;28;20526;-69
2022/06/11 11:07:16;;;;;;;9.40;9.10;;;23.30;99.90;;;;;;5072056;28;20485;-68
2022/06/11 11:09:44;;;;;;;9.50;9.20;;;23.30;99.90;;;;;;5071898;28;20467;-67
2022/06/11 11:12:24;;;;;;;9.43;9.03;;;23.30;99.90;;;;;;5072112;28;20435;-69
2022/06/11 11:15:01;;;;;;;8.97;8.77;;;23.40;99.90;;;;;;5072043;28;20439;-68
2022/06/11 11:17:30;;;;;;;9.60;9.30;;;23.30;99.90;;;;;;5072088;28;20529;-68
2022/06/11 11:20:34;;;;;;;9.00;8.70;;;23.40;99.90;;;;;;5071828;28;20479;-68
2022/06/11 11:23:06;;;;;;;10.03;9.60;;;23.40;99.90;;;;;;5072037;28;20536;-67
2022/06/11 11:25:37;;;;;;;9.43;9.03;;;23.40;99.90;;;;;;5071827;28;20530;-68
2022/06/11 11:28:07;;;;;;;10.50;10.20;;;23.40;99.90;;;;;;5071816;28;20530;-68
2022/06/11 11:30:37;;;;;;;9.90;9.60;;;23.40;99.90;;;;;;5071564;28;20526;-68
2022/06/11 11:33:22;;;;;;;9.80;9.30;;;23.40;99.90;;;;;;5071909;28;20454;-68
2022/06/11 11:36:00;;;;;;;9.70;9.33;;;23.40;99.90;;;;;;5071771;28;20478;-68
2022/06/11 11:38:28;;;;;;;10.33;9.93;;;23.40;99.90;;;;;;5071654;28;20513;-68
2022/06/11 11:40:59;;;;;;;10.17;9.87;;;23.40;99.90;;;;;;5071350;28;20442;-69
2022/06/11 11:43:35;;;;;;;9.70;9.40;;;23.40;99.90;;;;;;5071601;28;20861;-68
2022/06/11 11:46:04;;;;;;;9.00;8.80;;;23.40;99.90;;;;;;5071382;28;20529;-68
2022/06/11 11:48:35;;;;;;;9.57;9.27;;;23.40;99.90;;;;;;5071372;28;20548;-68
2022/06/11 11:51:06;;;;;;;10.00;9.70;;;23.50;99.90;;;;;;5071514;28;20789;-68
2022/06/11 11:53:40;;;;;;;10.33;9.93;;;23.40;99.90;;;;;;5071530;28;20471;-68
2022/06/11 11:56:22;;;;;;;8.90;8.60;;;23.50;99.90;;;;;;5071630;28;20534;-68
2022/06/11 11:58:54;;;;;;;9.63;9.33;;;23.50;99.90;;;;;;5071444;28;20463;-68
2022/06/11 12:01:24;;;;;;;9.33;9.00;;;23.50;99.90;;;;;;5071156;28;20443;-69
2022/06/11 12:04:00;;;;;;;9.50;9.20;;;23.50;99.90;;;;;;5071347;28;20482;-68
2022/06/11 12:06:32;;;;;;;8.93;8.73;;;23.50;99.90;;;;;;5071438;28;20534;-69
2022/06/11 12:09:00;;;;;;;9.70;9.40;;;23.50;99.90;;;;;;5071380;28;20876;-68
2022/06/11 12:11:38;;;;;;;10.13;9.70;;;23.50;99.90;;;;;;5071145;28;20475;-68
2022/06/11 12:14:13;;;;;;;9.13;8.80;;;23.50;99.90;;;;;;5071283;28;20439;-67
2022/06/11 12:16:43;;;;;;;9.53;9.23;;;23.60;99.90;;;;;;5071365;28;20541;-68
2022/06/11 12:19:23;;;;;;;10.70;10.30;;;23.60;99.90;;;;;;5071036;28;20906;-69
2022/06/11 12:21:55;;;;;;;8.87;8.67;;;23.60;99.90;;;;;;5071117;28;21020;-68
2022/06/11 12:24:28;;;;;;;9.47;9.17;;;23.60;99.90;;;;;;5071272;28;20532;-69
2022/06/11 12:27:01;;;;;;;8.57;8.30;;;23.60;99.90;;;;;;5071239;28;20527;-68
2022/06/11 12:29:33;;;;;;;8.27;7.97;;;23.60;99.90;;;;;;5071033;28;20829;-69
2022/06/11 12:32:18;;;;;;;9.27;8.97;;;23.60;99.90;;;;;;5071127;28;20443;-68
2022/06/11 12:34:45;;;;;;;8.60;8.27;;;23.60;99.90;;;;;;5071125;28;20478;-68
2022/06/11 12:37:23;;;;;;;8.50;8.30;;;23.60;99.90;;;;;;5070994;28;20478;-68
2022/06/11 12:40:01;;;;;;;9.40;9.10;;;23.60;99.90;;;;;;5070800;28;20462;-67
2022/06/11 12:42:34;;;;;;;8.90;8.60;;;23.60;99.90;;;;;;5070909;28;20476;-69
2022/06/11 12:45:18;;;;;;;8.00;7.77;;;23.60;99.90;;;;;;5071044;28;20538;-69
2022/06/11 12:48:01;;;;;;;8.40;8.20;;;23.60;99.90;;;;;;5070926;28;20447;-68
2022/06/11 12:50:41;;;;;;;8.63;8.43;;;23.60;99.90;;;;;;5070698;28;20524;-68
2022/06/11 12:53:19;;;;;;;9.30;9.10;;;23.60;99.90;;;;;;5070895;28;20435;-68
2022/06/11 12:56:08;;;;;;;9.10;8.83;;;23.70;99.90;;;;;;5070921;28;20465;-68
2022/06/11 12:58:47;;;;;;;8.27;8.07;;;23.70;99.90;;;;;;5073448;28;20554;-68
2022/06/11 13:01:20;;;;;;;9.23;8.83;;;23.70;99.90;;;;;;5074279;28;20467;-69
2022/06/11 13:04:21;;;;;;;8.97;8.77;;;23.70;99.90;;;;;;5074473;28;20475;-69